createdAt,value
2018-11-13T00:03:32.958Z,32.93
2018-11-13T00:12:08.722Z,30.70
2018-11-13T00:18:11.094Z,35.20
2018-11-13T00:24:13.740Z,38.73
2018-11-13T00:30:20.814Z,37.60
2018-11-13T00:36:23.448Z,35.40
2018-11-13T00:42:26.585Z,35.47
2018-11-13T00:48:29.158Z,33.97
2018-11-13T00:57:06.296Z,29.30
2018-11-13T01:03:08.868Z,31.13
2018-11-13T01:09:12.183Z,37.40
2018-11-13T01:15:15.980Z,32.67
2018-11-13T01:21:19.079Z,36.37
2018-11-13T01:27:21.745Z,31.93
2018-11-13T01:33:25.159Z,34.13
2018-11-13T01:39:27.580Z,37.40
2018-11-13T01:45:30.368Z,32.80
2018-11-13T01:51:32.852Z,34.47
2018-11-13T01:57:35.887Z,34.90
2018-11-13T02:03:38.329Z,39.17
2018-11-13T02:09:40.696Z,37.93
2018-11-13T02:15:43.169Z,32.77
2018-11-13T02:21:45.608Z,31.87
2018-11-13T02:27:49.225Z,26.83
2018-11-13T02:33:52.484Z,23.07
2018-11-13T02:39:55.090Z,23.60
2018-11-13T02:45:57.826Z,20.60
2018-11-13T02:52:00.381Z,20.20
2018-11-13T02:58:03.114Z,22.90
2018-11-13T03:04:05.704Z,21.43
2018-11-13T03:12:42.952Z,18.27
2018-11-13T03:18:45.386Z,20.87
2018-11-13T03:24:47.876Z,17.33
2018-11-13T03:30:50.359Z,16.00
2018-11-13T03:36:52.739Z,15.53
2018-11-13T03:42:55.120Z,12.60
2018-11-13T03:51:29.017Z,11.43
2018-11-13T03:57:31.366Z,12.30
2018-11-13T04:03:34.123Z,11.27
2018-11-13T04:09:36.806Z,10.33
2018-11-13T04:15:39.322Z,9.53
2018-11-13T04:24:13.739Z,8.37
2018-11-13T04:30:17.433Z,6.20
2018-11-13T04:36:20.227Z,6.03
2018-11-13T04:42:22.715Z,6.30
2018-11-13T04:48:25.175Z,6.93
2018-11-13T04:56:59.875Z,9.03
2018-11-13T05:03:02.270Z,8.43
2018-11-13T05:09:05.939Z,9.53
2018-11-13T05:15:08.503Z,10.67
2018-11-13T05:21:11.565Z,8.33
2018-11-13T05:27:14.119Z,8.83
2018-11-13T05:33:16.832Z,10.40
2018-11-13T05:39:19.764Z,8.00
2018-11-13T05:45:23.572Z,6.70
2018-11-13T05:51:26.090Z,7.40
2018-11-13T05:57:28.806Z,6.80
2018-11-13T06:03:31.303Z,6.10
2018-11-13T06:09:33.989Z,7.07
2018-11-13T06:15:36.637Z,5.00
2018-11-13T06:21:39.478Z,4.80
2018-11-13T06:27:43.125Z,5.03
2018-11-13T06:33:45.667Z,5.50
2018-11-13T06:39:48.443Z,4.77
2018-11-13T06:45:51.839Z,4.20
2018-11-13T06:51:55.495Z,3.87
2018-11-13T06:57:57.952Z,3.43
2018-11-13T07:04:00.416Z,3.50
2018-11-13T07:10:03.075Z,3.70
2018-11-13T07:16:05.821Z,3.40
2018-11-13T07:22:08.310Z,5.40
2018-11-13T07:28:10.701Z,3.43
2018-11-13T07:34:13.509Z,4.50
2018-11-13T07:40:15.921Z,3.73
2018-11-13T07:46:18.448Z,3.97
2018-11-13T07:52:21.050Z,6.57
2018-11-13T07:58:24.427Z,5.73
2018-11-13T08:04:27.660Z,4.40
2018-11-13T08:10:30.215Z,4.73
2018-11-13T08:16:32.870Z,6.33
2018-11-13T08:22:35.612Z,4.27
2018-11-13T08:28:38.197Z,4.50
2018-11-13T08:34:40.541Z,4.57
2018-11-13T08:40:42.911Z,6.00
2018-11-13T08:46:45.351Z,4.37
2018-11-13T08:52:47.728Z,4.07
2018-11-13T08:58:50.334Z,6.13
2018-11-13T09:04:52.899Z,4.37
2018-11-13T09:10:55.310Z,6.33
2018-11-13T09:16:57.741Z,3.40
2018-11-13T09:23:01.382Z,3.37
2018-11-13T09:29:04.289Z,6.23
2018-11-13T09:35:07.541Z,3.17
2018-11-13T09:41:10.333Z,3.73
2018-11-13T09:47:12.909Z,4.67
2018-11-13T09:53:15.447Z,4.57
2018-11-13T09:59:18.130Z,4.87
2018-11-13T10:05:21.466Z,3.80
2018-11-13T10:11:24.136Z,5.23
2018-11-13T10:17:27.431Z,3.10
2018-11-13T10:23:29.913Z,5.23
2018-11-13T10:29:32.500Z,5.90
2018-11-13T10:35:34.961Z,6.20
2018-11-13T10:41:37.430Z,5.27
2018-11-13T10:47:40.178Z,4.17
2018-11-13T10:53:42.659Z,3.30
2018-11-13T10:59:45.249Z,4.43
2018-11-13T11:05:47.950Z,5.73
2018-11-13T11:11:50.500Z,3.30
2018-11-13T11:17:52.943Z,3.13
2018-11-13T11:23:55.605Z,5.27
2018-11-13T11:29:58.201Z,2.27
2018-11-13T11:36:01.519Z,3.87
2018-11-13T11:42:04.539Z,1.57
2018-11-13T11:48:07.127Z,5.30
2018-11-13T11:54:09.775Z,4.20
2018-11-13T12:00:14.971Z,2.73
2018-11-13T12:06:17.480Z,3.97
2018-11-13T12:14:49.767Z,4.00
2018-11-13T12:20:52.473Z,2.40
2018-11-13T12:26:55.046Z,4.50
2018-11-13T12:32:57.983Z,5.23
2018-11-13T12:41:28.857Z,5.03
2018-11-13T12:47:35.373Z,3.10
2018-11-13T12:53:37.811Z,2.27
2018-11-13T12:59:40.309Z,3.63
2018-11-13T13:05:42.889Z,6.27
2018-11-13T13:11:45.508Z,3.77
2018-11-13T13:17:48.004Z,2.30
2018-11-13T13:23:50.697Z,3.80
2018-11-13T13:29:53.627Z,2.77
2018-11-13T13:36:03.404Z,4.83
2018-11-13T13:42:05.816Z,7.73
2018-11-13T13:48:08.738Z,3.67
2018-11-13T13:54:11.403Z,2.10
2018-11-13T14:00:14.078Z,2.70
2018-11-13T14:06:23.349Z,5.93
2018-11-13T14:12:25.964Z,3.03
2018-11-13T14:18:28.806Z,5.77
2018-11-13T14:24:31.271Z,5.97
2018-11-13T14:30:34.970Z,2.70
2018-11-13T14:36:37.428Z,3.57
2018-11-13T14:42:40.091Z,5.73
2018-11-13T14:48:42.935Z,3.47
2018-11-13T14:54:45.733Z,2.87
2018-11-13T15:00:48.399Z,4.73
2018-11-13T15:06:51.071Z,3.60
2018-11-13T15:12:54.050Z,5.53
2018-11-13T15:18:56.427Z,3.17
2018-11-13T15:24:58.948Z,3.53
2018-11-13T15:31:02.199Z,5.97
2018-11-13T15:37:06.471Z,3.70
2018-11-13T15:43:09.386Z,2.73
2018-11-13T15:49:12.047Z,4.00
2018-11-13T15:55:14.956Z,3.63
2018-11-13T16:01:20.732Z,4.53
2018-11-13T16:07:23.136Z,3.93
2018-11-13T16:13:26.035Z,2.60
2018-11-13T16:19:30.094Z,3.13
2018-11-13T16:25:32.724Z,8.17
2018-11-13T16:31:35.179Z,4.43
2018-11-13T16:37:38.942Z,3.67
2018-11-13T16:43:41.653Z,7.73
2018-11-13T16:49:44.295Z,5.47
2018-11-13T16:55:52.927Z,5.03
2018-11-13T17:01:55.457Z,6.17
2018-11-13T17:07:58.158Z,5.43
2018-11-13T17:14:00.745Z,4.27
2018-11-13T17:20:03.487Z,6.47
2018-11-13T17:26:06.646Z,8.33
2018-11-13T17:32:09.197Z,6.77
2018-11-13T17:38:12.480Z,6.10
2018-11-13T17:44:15.378Z,6.53
2018-11-13T17:50:20.659Z,7.87
2018-11-13T17:56:23.467Z,7.67
2018-11-13T18:02:26.120Z,11.20
2018-11-13T18:08:28.794Z,10.90
2018-11-13T18:14:31.503Z,5.30
2018-11-13T18:20:35.364Z,6.37
2018-11-13T18:26:38.020Z,4.93
2018-11-13T18:32:41.724Z,10.57
2018-11-13T18:38:44.433Z,6.33
2018-11-13T18:44:48.596Z,6.33
2018-11-13T18:50:51.717Z,6.47
2018-11-13T18:56:54.424Z,8.57
2018-11-13T19:02:58.342Z,6.63
2018-11-13T19:09:01.284Z,9.60
2018-11-13T19:15:03.627Z,10.60
2018-11-13T19:21:06.152Z,7.50
2018-11-13T19:27:08.887Z,10.60
2018-11-13T19:33:11.355Z,4.93
2018-11-13T19:39:13.861Z,5.37
2018-11-13T19:45:17.479Z,7.03
2018-11-13T19:51:20.419Z,8.57
2018-11-13T19:57:23.123Z,10.83
2018-11-13T20:03:25.504Z,6.17
2018-11-13T20:09:28.019Z,12.50
2018-11-13T20:15:31.331Z,7.37
2018-11-13T20:21:34.238Z,9.40
2018-11-13T20:27:37.445Z,7.30
2018-11-13T20:33:40.061Z,10.47
2018-11-13T20:39:42.639Z,8.23
2018-11-13T20:45:45.098Z,9.23
2018-11-13T20:51:47.567Z,7.40
2018-11-13T20:57:50.161Z,10.23
2018-11-13T21:03:53.868Z,7.83
2018-11-13T21:09:56.516Z,7.87
2018-11-13T21:15:59.455Z,8.40
2018-11-13T21:22:01.992Z,10.30
2018-11-13T21:28:04.602Z,7.93
2018-11-13T21:34:07.256Z,12.47
2018-11-13T21:40:12.895Z,10.27
2018-11-13T21:48:47.722Z,14.97
2018-11-13T21:54:50.464Z,9.33
2018-11-13T22:00:53.707Z,11.10
2018-11-13T22:06:56.145Z,13.07
2018-11-13T22:12:59.686Z,9.70
2018-11-13T22:19:02.197Z,14.27
2018-11-13T22:25:06.679Z,11.47
2018-11-13T22:31:09.235Z,13.00
2018-11-13T22:37:12.000Z,14.27
2018-11-13T22:43:14.547Z,11.90
2018-11-13T22:49:17.153Z,10.97
2018-11-13T22:55:20.086Z,10.03
2018-11-13T23:01:22.660Z,11.57
2018-11-13T23:07:25.278Z,10.97
2018-11-13T23:15:59.628Z,12.67
2018-11-13T23:22:02.203Z,10.77
2018-11-13T23:28:05.243Z,9.20
2018-11-13T23:34:07.648Z,9.77
2018-11-13T23:40:13.739Z,13.37
2018-11-13T23:46:15.829Z,11.30
2018-11-13T23:52:18.441Z,13.47
2018-11-13T23:58:21.053Z,13.47
